createdAt,value
2018-10-05T00:01:45.994Z,38.40
2018-10-05T00:04:14.539Z,38.50
2018-10-05T00:06:43.128Z,39.40
2018-10-05T00:09:12.462Z,38.90
2018-10-05T00:11:40.988Z,40.70
2018-10-05T00:14:09.723Z,41.00
2018-10-05T00:16:38.166Z,40.20
2018-10-05T00:19:07.093Z,39.30
2018-10-05T00:21:35.597Z,39.00
2018-10-05T00:24:04.189Z,38.50
2018-10-05T00:26:32.683Z,38.00
2018-10-05T00:29:01.245Z,37.90
2018-10-05T00:31:29.808Z,38.30
2018-10-05T00:33:58.233Z,38.50
2018-10-05T00:36:26.779Z,39.20
2018-10-05T00:38:55.280Z,38.80
2018-10-05T00:41:23.865Z,38.60
2018-10-05T00:43:52.432Z,38.30
2018-10-05T00:46:20.787Z,38.10
2018-10-05T00:48:49.306Z,38.40
2018-10-05T00:51:17.762Z,38.20
2018-10-05T00:53:46.489Z,37.90
2018-10-05T00:56:14.965Z,37.10
2018-10-05T00:58:43.571Z,37.30
2018-10-05T01:01:12.035Z,37.90
2018-10-05T01:03:40.659Z,38.50
2018-10-05T01:06:09.105Z,38.20
2018-10-05T01:08:37.640Z,38.20
2018-10-05T01:11:06.180Z,38.50
2018-10-05T01:13:34.667Z,38.40
2018-10-05T01:16:03.096Z,37.90
2018-10-05T01:18:31.492Z,38.60
2018-10-05T01:20:59.940Z,39.80
2018-10-05T01:23:28.471Z,39.80
2018-10-05T01:25:57.054Z,38.70
2018-10-05T01:28:25.532Z,38.50
2018-10-05T01:30:54.029Z,38.60
2018-10-05T01:33:22.508Z,38.90
2018-10-05T01:35:51.009Z,39.00
2018-10-05T01:38:19.601Z,38.10
2018-10-05T01:40:48.057Z,38.50
2018-10-05T01:43:16.596Z,37.30
2018-10-05T01:45:45.197Z,37.40
2018-10-05T01:48:13.735Z,37.80
2018-10-05T01:50:42.196Z,37.10
2018-10-05T01:53:10.742Z,37.20
2018-10-05T01:55:39.259Z,37.80
2018-10-05T01:58:07.754Z,37.60
2018-10-05T02:00:36.193Z,37.20
2018-10-05T02:03:04.683Z,36.90
2018-10-05T02:05:33.180Z,37.50
2018-10-05T02:08:01.660Z,36.90
2018-10-05T02:10:30.104Z,37.10
2018-10-05T02:12:58.649Z,37.10
2018-10-05T02:15:27.066Z,37.20
2018-10-05T02:17:55.447Z,37.30
2018-10-05T02:20:23.769Z,37.30
2018-10-05T02:22:52.783Z,37.80
2018-10-05T02:25:21.207Z,37.60
2018-10-05T02:27:49.654Z,37.80
2018-10-05T02:30:18.152Z,37.30
2018-10-05T02:32:46.479Z,37.80
2018-10-05T02:35:14.994Z,37.70
2018-10-05T02:37:43.404Z,37.90
2018-10-05T02:40:12.012Z,37.50
2018-10-05T02:42:40.350Z,38.70
2018-10-05T02:45:08.694Z,38.20
2018-10-05T02:47:37.140Z,38.40
2018-10-05T02:50:05.685Z,38.40
2018-10-05T02:52:34.027Z,38.80
2018-10-05T02:55:02.438Z,39.50
2018-10-05T02:57:30.697Z,39.50
2018-10-05T02:59:59.169Z,39.10
2018-10-05T03:02:30.612Z,38.70
2018-10-05T03:04:59.013Z,38.70
2018-10-05T03:07:28.660Z,39.00
2018-10-05T03:09:57.712Z,39.20
2018-10-05T03:12:26.203Z,39.80
2018-10-05T03:14:54.632Z,39.80
2018-10-05T03:17:23.012Z,38.80
2018-10-05T03:19:51.528Z,39.20
2018-10-05T03:22:19.847Z,39.10
2018-10-05T03:24:48.112Z,39.60
2018-10-05T03:27:16.523Z,39.00
2018-10-05T03:29:44.957Z,38.90
2018-10-05T03:32:13.394Z,39.30
2018-10-05T03:34:41.832Z,39.30
2018-10-05T03:37:10.237Z,39.70
2018-10-05T03:39:38.604Z,38.90
2018-10-05T03:42:06.991Z,39.80
2018-10-05T03:44:35.471Z,39.70
2018-10-05T03:47:03.931Z,41.50
2018-10-05T03:49:32.295Z,41.80
2018-10-05T03:52:00.692Z,40.90
2018-10-05T03:54:29.044Z,40.70
2018-10-05T03:56:57.702Z,41.60
2018-10-05T03:59:26.151Z,40.70
2018-10-05T04:01:54.584Z,40.90
2018-10-05T04:04:22.902Z,41.20
2018-10-05T04:06:51.377Z,41.10
2018-10-05T04:09:19.752Z,40.90
2018-10-05T04:11:48.008Z,40.60
2018-10-05T04:14:16.279Z,40.80
2018-10-05T04:16:44.688Z,40.70
2018-10-05T04:19:13.145Z,40.80
2018-10-05T04:21:41.621Z,41.10
2018-10-05T04:24:10.052Z,40.90
2018-10-05T04:26:38.485Z,40.40
2018-10-05T04:29:06.884Z,40.50
2018-10-05T04:31:35.291Z,40.80
2018-10-05T04:34:03.696Z,41.00
2018-10-05T04:36:32.141Z,41.10
2018-10-05T04:39:00.472Z,40.70
2018-10-05T04:41:28.779Z,40.50
2018-10-05T04:43:57.090Z,40.30
2018-10-05T04:46:25.516Z,40.60
2018-10-05T04:48:53.921Z,41.10
2018-10-05T04:51:22.359Z,41.30
2018-10-05T04:53:50.740Z,41.30
2018-10-05T04:56:19.048Z,41.50
2018-10-05T04:58:47.861Z,42.30
2018-10-05T05:01:16.313Z,42.40
2018-10-05T05:03:44.711Z,42.60
2018-10-05T05:06:13.163Z,42.50
2018-10-05T05:08:41.459Z,43.30
2018-10-05T05:11:12.277Z,43.70
2018-10-05T05:13:40.696Z,43.80
2018-10-05T05:16:09.220Z,43.50
2018-10-05T05:18:37.760Z,43.40
2018-10-05T05:21:06.263Z,43.10
2018-10-05T05:23:34.719Z,43.00
2018-10-05T05:26:03.118Z,44.30
2018-10-05T05:28:31.467Z,44.70
2018-10-05T05:30:59.827Z,45.20
2018-10-05T05:33:28.117Z,45.30
2018-10-05T05:35:56.593Z,43.80
2018-10-05T05:38:25.215Z,44.20
2018-10-05T05:40:53.537Z,44.90
2018-10-05T05:43:21.893Z,44.10
2018-10-05T05:45:50.245Z,43.40
2018-10-05T05:48:18.596Z,43.40
2018-10-05T05:50:47.225Z,43.90
2018-10-05T05:53:16.254Z,43.50
2018-10-05T05:55:45.023Z,43.60
2018-10-05T05:58:13.430Z,44.80
2018-10-05T06:00:42.252Z,45.60
2018-10-05T06:03:10.688Z,46.40
2018-10-05T06:05:39.294Z,47.10
2018-10-05T06:08:07.963Z,45.50
2018-10-05T06:10:36.489Z,46.10
2018-10-05T06:13:04.884Z,45.30
2018-10-05T06:15:33.201Z,45.70
2018-10-05T06:18:01.629Z,46.40
2018-10-05T06:20:30.046Z,46.60
2018-10-05T06:22:58.443Z,47.60
2018-10-05T06:25:26.815Z,46.70
2018-10-05T06:27:55.246Z,47.20
2018-10-05T06:30:23.724Z,48.30
2018-10-05T06:32:52.120Z,47.70
2018-10-05T06:35:20.806Z,47.40
2018-10-05T06:37:49.160Z,48.00
2018-10-05T06:40:17.724Z,47.30
2018-10-05T06:42:46.108Z,47.40
2018-10-05T06:45:14.720Z,47.70
2018-10-05T06:47:43.060Z,47.80
2018-10-05T06:50:11.484Z,46.80
2018-10-05T06:52:39.939Z,46.30
2018-10-05T06:55:08.563Z,46.40
2018-10-05T06:57:36.970Z,46.80
2018-10-05T07:00:05.657Z,46.80
2018-10-05T07:02:34.088Z,47.00
2018-10-05T07:05:02.565Z,47.30
2018-10-05T07:07:31.145Z,47.30
2018-10-05T07:09:59.446Z,47.50
2018-10-05T07:12:27.860Z,47.20
2018-10-05T07:14:56.272Z,47.50
2018-10-05T07:17:24.639Z,47.00
2018-10-05T07:19:53.016Z,47.00
2018-10-05T07:22:21.532Z,47.10
2018-10-05T07:24:49.940Z,46.80
2018-10-05T07:27:18.319Z,46.50
2018-10-05T07:29:46.992Z,46.20
2018-10-05T07:32:15.415Z,45.20
2018-10-05T07:34:43.805Z,45.10
2018-10-05T07:37:12.347Z,45.40
2018-10-05T07:39:40.698Z,45.30
2018-10-05T07:42:09.124Z,45.10
2018-10-05T07:44:37.531Z,45.30
2018-10-05T07:47:06.114Z,45.30
2018-10-05T07:49:34.612Z,45.40
2018-10-05T07:52:03.056Z,45.10
2018-10-05T07:54:31.481Z,45.20
2018-10-05T07:57:00.624Z,46.60
2018-10-05T07:59:29.056Z,45.70
2018-10-05T08:01:57.481Z,45.20
2018-10-05T08:04:25.828Z,46.00
2018-10-05T08:06:54.187Z,45.20
2018-10-05T08:09:22.494Z,45.40
2018-10-05T08:11:50.922Z,45.50
2018-10-05T08:14:53.109Z,45.50
2018-10-05T08:17:21.576Z,46.10
2018-10-05T08:19:49.887Z,46.00
2018-10-05T08:22:18.367Z,45.70
2018-10-05T08:24:46.709Z,45.70
2018-10-05T08:27:15.346Z,46.70
2018-10-05T08:29:43.732Z,45.90
2018-10-05T08:32:12.104Z,45.90
2018-10-05T08:34:40.554Z,45.60
2018-10-05T08:37:08.876Z,45.40
2018-10-05T08:39:37.254Z,45.70
2018-10-05T08:42:05.724Z,45.00
2018-10-05T08:44:34.166Z,44.50
2018-10-05T08:47:02.498Z,44.20
2018-10-05T08:49:30.855Z,44.30
2018-10-05T08:51:59.297Z,44.10
2018-10-05T08:54:27.783Z,44.80
2018-10-05T08:56:56.228Z,44.70
2018-10-05T08:59:24.587Z,44.30
2018-10-05T09:01:53.056Z,45.00
2018-10-05T09:04:21.436Z,44.30
2018-10-05T09:06:49.938Z,43.80
2018-10-05T09:09:18.240Z,44.00
2018-10-05T09:11:46.540Z,43.80
2018-10-05T09:14:34.633Z,43.20
2018-10-05T09:17:03.054Z,43.30
2018-10-05T09:19:31.432Z,43.60
2018-10-05T09:22:00.087Z,43.20
2018-10-05T09:24:28.415Z,43.10
2018-10-05T09:26:56.815Z,43.90
2018-10-05T09:29:25.165Z,43.30
2018-10-05T09:31:53.546Z,43.20
2018-10-05T09:34:21.892Z,44.40
2018-10-05T09:36:50.292Z,43.30
2018-10-05T09:39:18.644Z,43.20
2018-10-05T09:41:47.020Z,43.60
2018-10-05T09:44:15.401Z,43.90
2018-10-05T09:46:43.788Z,44.30
2018-10-05T09:49:12.251Z,45.10
2018-10-05T09:51:40.634Z,43.70
2018-10-05T09:54:09.035Z,42.50
2018-10-05T09:56:37.561Z,41.50
2018-10-05T09:59:05.921Z,41.70
2018-10-05T10:01:39.689Z,41.30
2018-10-05T10:04:14.985Z,40.80
2018-10-05T10:06:43.361Z,41.70
2018-10-05T10:09:11.807Z,41.00
2018-10-05T10:11:40.249Z,41.70
2018-10-05T10:14:21.573Z,41.80
2018-10-05T10:16:49.987Z,42.30
2018-10-05T10:19:18.446Z,42.50
2018-10-05T10:21:46.888Z,42.60
2018-10-05T10:24:15.347Z,41.90
2018-10-05T10:26:43.603Z,42.10
2018-10-05T10:29:11.948Z,41.50
2018-10-05T10:31:40.283Z,41.70
2018-10-05T10:34:08.709Z,41.60
2018-10-05T10:36:37.181Z,41.90
2018-10-05T10:39:07.515Z,41.40
2018-10-05T10:41:35.966Z,41.10
2018-10-05T10:44:04.482Z,41.10
2018-10-05T10:46:32.985Z,41.20
2018-10-05T10:49:01.456Z,41.70
2018-10-05T10:51:29.813Z,41.70
2018-10-05T10:53:58.141Z,41.10
2018-10-05T10:56:26.848Z,41.40
2018-10-05T10:58:55.279Z,41.80
2018-10-05T11:01:23.827Z,41.60
2018-10-05T11:03:52.315Z,42.50
2018-10-05T11:06:20.728Z,41.70
2018-10-05T11:08:49.584Z,41.00
2018-10-05T11:11:18.353Z,41.30
2018-10-05T11:13:46.672Z,41.30
2018-10-05T11:16:15.140Z,40.90
2018-10-05T11:18:43.492Z,41.00
2018-10-05T11:21:11.899Z,40.90
2018-10-05T11:23:40.297Z,41.50
2018-10-05T11:26:08.769Z,41.50
2018-10-05T11:28:37.190Z,41.60
2018-10-05T11:31:05.509Z,42.50
2018-10-05T11:33:33.820Z,42.10
2018-10-05T11:36:02.357Z,42.10
2018-10-05T11:38:30.752Z,42.40
2018-10-05T11:40:59.132Z,42.00
2018-10-05T11:43:27.475Z,42.20
2018-10-05T11:45:55.909Z,43.70
2018-10-05T11:48:24.251Z,43.40
2018-10-05T11:50:52.679Z,43.20
2018-10-05T11:53:20.951Z,43.60
2018-10-05T11:55:49.316Z,44.10
2018-10-05T11:58:17.660Z,43.60
2018-10-05T12:00:46.014Z,44.20
2018-10-05T12:03:14.387Z,43.50
2018-10-05T12:05:42.796Z,44.30
2018-10-05T12:08:11.205Z,44.70
2018-10-05T12:10:39.447Z,44.50
2018-10-05T12:13:07.969Z,44.50
2018-10-05T12:15:41.258Z,45.10
2018-10-05T12:18:09.559Z,44.70
2018-10-05T12:20:37.921Z,45.10
2018-10-05T12:23:06.332Z,45.20
2018-10-05T12:25:34.656Z,45.20
2018-10-05T12:28:03.015Z,45.30
2018-10-05T12:30:31.443Z,45.30
2018-10-05T12:32:59.908Z,45.30
2018-10-05T12:35:28.324Z,45.10
2018-10-05T12:37:56.720Z,45.10
2018-10-05T12:40:25.068Z,45.30
2018-10-05T12:42:53.468Z,45.80
2018-10-05T12:45:22.068Z,46.00
2018-10-05T12:47:50.428Z,46.90
2018-10-05T12:50:19.064Z,46.80
2018-10-05T12:52:47.471Z,46.80
2018-10-05T12:55:15.911Z,47.60
2018-10-05T12:57:44.307Z,47.90
2018-10-05T13:00:12.683Z,47.60
2018-10-05T13:02:41.113Z,48.20
2018-10-05T13:05:09.659Z,48.30
2018-10-05T13:07:38.164Z,48.30
2018-10-05T13:10:06.650Z,48.40
2018-10-05T13:12:35.031Z,48.20
2018-10-05T13:15:48.231Z,47.60
2018-10-05T13:18:16.677Z,47.40
2018-10-05T13:20:45.144Z,47.80
2018-10-05T13:23:13.540Z,48.60
2018-10-05T13:25:41.940Z,49.20
2018-10-05T13:28:10.303Z,48.80
2018-10-05T13:30:38.676Z,48.70
2018-10-05T13:33:07.128Z,49.00
2018-10-05T13:35:35.612Z,48.50
2018-10-05T13:38:03.957Z,48.10
2018-10-05T13:40:32.418Z,48.50
2018-10-05T13:43:00.808Z,49.00
2018-10-05T13:45:29.219Z,48.40
2018-10-05T13:47:57.604Z,48.60
2018-10-05T13:50:25.972Z,49.00
2018-10-05T13:52:54.352Z,49.10
2018-10-05T13:55:22.999Z,49.20
2018-10-05T13:57:51.353Z,49.70
2018-10-05T14:00:20.168Z,49.80
2018-10-05T14:02:48.526Z,50.60
2018-10-05T14:05:16.988Z,51.50
2018-10-05T14:07:45.523Z,51.80
2018-10-05T14:10:14.068Z,52.90
2018-10-05T14:12:42.456Z,53.10
2018-10-05T14:18:31.104Z,54.00
2018-10-05T14:20:59.516Z,57.50
2018-10-05T14:23:28.218Z,59.10
2018-10-05T14:25:56.583Z,59.60
2018-10-05T14:28:25.035Z,61.60
2018-10-05T14:30:53.761Z,61.70
2018-10-05T14:33:22.165Z,63.30
2018-10-05T14:35:50.577Z,64.20
2018-10-05T14:38:18.984Z,64.10
2018-10-05T14:40:47.297Z,64.50
2018-10-05T14:43:15.704Z,64.40
2018-10-05T14:45:44.140Z,64.30
2018-10-05T14:48:12.636Z,64.20
2018-10-05T14:50:41.279Z,63.70
2018-10-05T14:53:10.008Z,61.70
2018-10-05T14:55:38.297Z,60.50
2018-10-05T14:58:07.061Z,59.40
2018-10-05T15:00:35.861Z,58.60
2018-10-05T15:03:04.619Z,58.80
2018-10-05T15:05:32.980Z,58.80
2018-10-05T15:08:01.437Z,58.70
2018-10-05T15:10:29.939Z,57.50
2018-10-05T15:12:58.792Z,56.00
2018-10-05T15:18:37.259Z,56.40
2018-10-05T15:21:05.929Z,56.50
2018-10-05T15:23:34.623Z,56.90
2018-10-05T15:26:03.229Z,55.40
2018-10-05T15:28:31.936Z,55.20
2018-10-05T15:31:01.191Z,54.80
2018-10-05T15:33:29.959Z,54.90
2018-10-05T15:35:58.889Z,55.00
2018-10-05T15:38:27.452Z,55.40
2018-10-05T15:40:56.076Z,55.20
2018-10-05T15:43:24.792Z,55.10
2018-10-05T15:46:01.499Z,54.20
2018-10-05T15:48:30.164Z,54.10
2018-10-05T15:50:58.936Z,54.20
2018-10-05T15:53:27.527Z,54.10
2018-10-05T15:55:55.919Z,54.30
2018-10-05T15:58:24.268Z,54.10
2018-10-05T16:00:52.862Z,53.60
2018-10-05T16:03:21.267Z,53.60
2018-10-05T16:05:49.911Z,53.20
2018-10-05T16:08:18.480Z,53.20
2018-10-05T16:10:46.987Z,52.80
2018-10-05T16:13:15.863Z,52.40
2018-10-05T16:16:18.878Z,52.10
2018-10-05T16:18:47.811Z,52.00
2018-10-05T16:21:17.008Z,52.30
2018-10-05T16:23:45.796Z,51.70
2018-10-05T16:26:14.424Z,51.60
2018-10-05T16:28:42.916Z,51.40
2018-10-05T16:31:11.619Z,51.40
2018-10-05T16:33:39.984Z,51.50
2018-10-05T16:36:08.368Z,51.80
2018-10-05T16:38:36.768Z,51.90
2018-10-05T16:41:05.203Z,51.90
2018-10-05T16:43:33.640Z,51.80
2018-10-05T16:46:02.121Z,52.00
2018-10-05T16:48:30.794Z,52.20
2018-10-05T16:50:59.351Z,52.10
2018-10-05T16:53:27.957Z,52.00
2018-10-05T16:55:56.506Z,51.70
2018-10-05T16:58:24.943Z,51.90
2018-10-05T17:00:54.379Z,52.30
2018-10-05T17:03:22.922Z,52.60
2018-10-05T17:05:51.801Z,52.80
2018-10-05T17:08:20.475Z,52.70
2018-10-05T17:10:48.880Z,52.80
2018-10-05T17:13:17.524Z,52.90
2018-10-05T17:19:00.549Z,54.00
2018-10-05T17:21:29.219Z,54.20
2018-10-05T17:23:57.836Z,54.40
2018-10-05T17:26:26.312Z,54.80
2018-10-05T17:28:54.772Z,55.10
2018-10-05T17:31:23.411Z,54.50
2018-10-05T17:33:52.389Z,54.40
2018-10-05T17:36:21.287Z,54.30
2018-10-05T17:38:51.035Z,54.00
2018-10-05T17:41:20.094Z,54.10
2018-10-05T17:43:49.968Z,53.50
2018-10-05T17:46:19.128Z,53.10
2018-10-05T17:48:48.243Z,53.40
2018-10-05T17:51:17.259Z,53.10
2018-10-05T17:53:46.947Z,52.90
2018-10-05T17:56:16.057Z,52.40
2018-10-05T17:58:45.162Z,52.50
2018-10-05T18:01:14.296Z,53.30
2018-10-05T18:03:43.511Z,53.50
2018-10-05T18:06:12.645Z,53.40
2018-10-05T18:08:42.004Z,53.60
2018-10-05T18:11:15.960Z,54.30
2018-10-05T18:13:46.112Z,55.30
2018-10-05T18:16:47.231Z,54.80
2018-10-05T18:19:16.433Z,55.40
2018-10-05T18:21:45.560Z,55.40
2018-10-05T18:24:14.704Z,55.70
2018-10-05T18:26:43.507Z,56.50
2018-10-05T18:29:11.965Z,56.70
2018-10-05T18:31:40.406Z,56.90
2018-10-05T18:34:08.864Z,57.10
2018-10-05T18:36:37.100Z,57.10
2018-10-05T18:39:07.528Z,57.40
2018-10-05T18:41:35.967Z,57.20
2018-10-05T18:44:04.692Z,57.50
2018-10-05T18:46:33.257Z,57.60
2018-10-05T18:49:01.792Z,57.40
2018-10-05T18:51:30.327Z,57.90
2018-10-05T18:53:58.824Z,57.90
2018-10-05T18:56:38.134Z,57.60
2018-10-05T18:59:06.765Z,57.30
2018-10-05T19:01:35.631Z,57.60
2018-10-05T19:04:04.544Z,57.50
2018-10-05T19:06:33.778Z,57.00
2018-10-05T19:09:03.692Z,56.80
2018-10-05T19:11:32.760Z,56.50
2018-10-05T19:14:01.983Z,57.00
2018-10-05T19:16:49.318Z,57.10
2018-10-05T19:19:18.340Z,57.10
2018-10-05T19:21:47.706Z,56.60
2018-10-05T19:24:16.803Z,56.40
2018-10-05T19:26:45.894Z,55.90
2018-10-05T19:29:15.230Z,55.80
2018-10-05T19:31:44.368Z,56.30
2018-10-05T19:34:13.519Z,55.70
2018-10-05T19:36:42.682Z,55.60
2018-10-05T19:39:12.004Z,55.80
2018-10-05T19:41:41.533Z,55.60
2018-10-05T19:44:10.984Z,55.10
2018-10-05T19:46:40.088Z,55.50
2018-10-05T19:49:09.365Z,55.20
2018-10-05T19:51:38.216Z,54.50
2018-10-05T19:54:07.224Z,54.10
2018-10-05T19:56:35.865Z,53.80
2018-10-05T19:59:04.650Z,53.80
2018-10-05T20:01:33.418Z,54.00
2018-10-05T20:04:02.017Z,54.50
2018-10-05T20:06:30.720Z,54.10
2018-10-05T20:08:59.520Z,54.00
2018-10-05T20:11:28.248Z,54.50
2018-10-05T20:13:56.644Z,54.20
2018-10-05T20:20:22.925Z,54.10
2018-10-05T20:22:51.344Z,55.10
2018-10-05T20:25:33.771Z,55.10
2018-10-05T20:28:02.253Z,55.30
2018-10-05T20:30:30.620Z,55.30
2018-10-05T20:32:59.075Z,55.60
2018-10-05T20:35:27.403Z,55.80
2018-10-05T20:37:55.762Z,56.30
2018-10-05T20:40:24.149Z,56.50
2018-10-05T20:42:52.556Z,56.70
2018-10-05T20:45:20.953Z,56.50
2018-10-05T20:47:49.357Z,56.60
2018-10-05T20:50:18.208Z,56.50
2018-10-05T20:52:46.571Z,56.10
2018-10-05T20:55:15.188Z,56.40
2018-10-05T20:57:43.539Z,56.50
2018-10-05T21:00:12.018Z,56.00
2018-10-05T21:02:40.495Z,57.00
2018-10-05T21:05:08.871Z,56.60
2018-10-05T21:07:37.255Z,57.00
2018-10-05T21:10:05.612Z,57.10
2018-10-05T21:12:33.995Z,57.40
2018-10-05T21:18:23.919Z,57.90
2018-10-05T21:20:52.252Z,58.10
2018-10-05T21:23:20.572Z,58.30
2018-10-05T21:25:49.027Z,58.50
2018-10-05T21:28:17.400Z,58.50
2018-10-05T21:30:45.766Z,58.90
2018-10-05T21:33:14.140Z,58.90
2018-10-05T21:35:42.485Z,59.10
2018-10-05T21:38:10.801Z,59.00
2018-10-05T21:40:39.132Z,58.90
2018-10-05T21:43:07.576Z,58.90
2018-10-05T21:45:35.963Z,59.10
2018-10-05T21:48:04.424Z,59.30
2018-10-05T21:50:32.790Z,59.70
2018-10-05T21:53:01.169Z,59.30
2018-10-05T21:55:29.954Z,59.50
2018-10-05T21:57:58.363Z,59.80
2018-10-05T22:00:31.890Z,59.60
2018-10-05T22:03:00.300Z,59.60
2018-10-05T22:05:28.613Z,59.90
2018-10-05T22:07:56.948Z,59.90
2018-10-05T22:10:25.380Z,59.90
2018-10-05T22:12:53.795Z,59.90
2018-10-05T22:15:22.102Z,60.10
2018-10-05T22:17:50.480Z,60.40
2018-10-05T22:20:18.893Z,60.40
2018-10-05T22:22:47.360Z,60.30
2018-10-05T22:25:16.004Z,60.50
2018-10-05T22:27:44.519Z,60.70
2018-10-05T22:30:13.045Z,61.00
2018-10-05T22:32:41.377Z,60.60
2018-10-05T22:35:09.761Z,60.60
2018-10-05T22:37:38.143Z,60.70
2018-10-05T22:40:06.488Z,60.60
2018-10-05T22:42:34.895Z,60.70
2018-10-05T22:45:03.360Z,61.10
2018-10-05T22:47:31.704Z,60.90
2018-10-05T22:50:00.024Z,61.00
2018-10-05T22:52:28.418Z,61.00
2018-10-05T22:54:56.811Z,60.70
2018-10-05T22:57:25.168Z,60.60
2018-10-05T22:59:53.572Z,60.50
2018-10-05T23:02:21.968Z,60.50
2018-10-05T23:04:50.409Z,60.50
2018-10-05T23:07:18.874Z,60.50
2018-10-05T23:09:47.289Z,60.50
2018-10-05T23:12:15.672Z,60.40
2018-10-05T23:14:44.054Z,61.10
2018-10-05T23:17:12.324Z,60.20
2018-10-05T23:19:40.819Z,60.90
2018-10-05T23:22:09.303Z,60.20
2018-10-05T23:24:37.664Z,60.20
2018-10-05T23:27:06.572Z,60.30
2018-10-05T23:29:34.902Z,60.50
2018-10-05T23:32:03.339Z,61.10
2018-10-05T23:34:31.729Z,61.40
2018-10-05T23:37:00.837Z,61.30
2018-10-05T23:39:29.230Z,61.80
2018-10-05T23:41:57.619Z,61.70
2018-10-05T23:44:25.936Z,62.50
2018-10-05T23:46:54.240Z,62.70
2018-10-05T23:49:22.596Z,63.40
2018-10-05T23:51:50.941Z,63.60
2018-10-05T23:54:19.288Z,64.30
2018-10-05T23:56:47.784Z,63.20
2018-10-05T23:59:16.144Z,63.00
